Terminal Aerodrome Forecast
Issued by NWS

Home | Current Version | Previous Version | Text Only | Print | Product List | Glossary On
Versions: 1 2 3 4 5 6 7 8 9 10 11 12 13 14 15 16 17 18 19 20
000
FTUS46 KSEW 242300
TAFCLM
TAF
KCLM 242331Z 2500/2524 VRB02KT 1/2SM FG OVC002
     FM250300 00000KT P6SM VCFG SCT004 OVC050
     FM250600 17002KT P6SM BKN200=

USA.gov is the U.S. government's official web portal to all federal, state and local government web resources and services.